createdAt,value
2023-01-02T00:00:21.588Z,7.57
2023-01-02T00:03:07.927Z,4.95
2023-01-02T00:05:53.963Z,6.85
2023-01-02T00:08:40.039Z,4.43
2023-01-02T00:11:26.212Z,5.72
2023-01-02T00:14:12.342Z,5.15
2023-01-02T00:16:58.283Z,3.97
2023-01-02T00:19:44.447Z,6.57
2023-01-02T00:22:30.586Z,5.05
2023-01-02T00:25:16.647Z,4.90
2023-01-02T00:28:02.942Z,3.97
2023-01-02T00:30:49.248Z,4.85
2023-01-02T00:33:36.332Z,6.88
2023-01-02T00:36:23.223Z,5.32
2023-01-02T00:39:09.356Z,6.65
2023-01-02T00:41:55.462Z,6.50
2023-01-02T00:44:41.528Z,5.07
2023-01-02T00:47:27.609Z,8.52
2023-01-02T00:50:13.506Z,5.57
2023-01-02T00:52:59.621Z,6.05
2023-01-02T00:55:45.723Z,5.72
2023-01-02T00:58:31.844Z,6.15
2023-01-02T01:01:18.000Z,5.78
2023-01-02T01:04:04.215Z,4.25
2023-01-02T01:06:50.380Z,6.78
2023-01-02T01:09:36.474Z,5.60
2023-01-02T01:12:22.583Z,3.75
2023-01-02T01:15:08.973Z,7.90
2023-01-02T01:17:55.125Z,6.65
2023-01-02T01:20:41.363Z,7.97
2023-01-02T01:23:28.006Z,5.57
2023-01-02T01:26:14.457Z,9.27
2023-01-02T01:29:02.063Z,9.40
2023-01-02T01:31:48.315Z,7.35
2023-01-02T01:34:34.437Z,7.15
2023-01-02T01:37:20.556Z,10.18
2023-01-02T01:40:07.132Z,6.18
2023-01-02T01:42:59.021Z,9.25
2023-01-02T01:45:47.120Z,8.18
2023-01-02T01:48:33.753Z,8.68
2023-01-02T01:51:21.150Z,7.15
2023-01-02T01:54:10.243Z,7.55
2023-01-02T01:56:59.311Z,7.38
2023-01-02T01:59:45.846Z,11.88
2023-01-02T02:02:33.386Z,6.93
2023-01-02T02:05:22.776Z,6.72
2023-01-02T02:08:24.534Z,7.68
2023-01-02T02:11:11.369Z,8.32
2023-01-02T02:14:00.246Z,8.07
2023-01-02T02:16:55.636Z,8.02
2023-01-02T02:20:00.668Z,7.25
2023-01-02T02:22:56.201Z,6.18
2023-01-02T02:25:48.540Z,8.73
2023-01-02T02:28:46.949Z,5.10
2023-01-02T02:31:43.656Z,6.68
2023-01-02T02:34:30.385Z,7.60
2023-01-02T02:37:16.743Z,8.95
2023-01-02T02:40:08.836Z,8.98
2023-01-02T02:43:08.512Z,9.38
2023-01-02T02:45:54.966Z,6.90
2023-01-02T02:48:46.349Z,11.15
2023-01-02T02:51:46.463Z,8.82
2023-01-02T02:54:36.215Z,8.30
2023-01-02T02:57:23.057Z,7.32
2023-01-02T03:00:11.437Z,7.93
2023-01-02T03:02:58.023Z,8.68
2023-01-02T03:05:51.197Z,7.63
2023-01-02T03:08:37.683Z,8.55
2023-01-02T03:11:28.060Z,6.00
2023-01-02T03:14:35.026Z,6.40
2023-01-02T03:17:41.658Z,6.45
2023-01-02T03:20:30.120Z,8.35
2023-01-02T03:23:21.149Z,7.57
2023-01-02T03:26:07.951Z,7.07
2023-01-02T03:28:57.463Z,9.50
2023-01-02T03:31:44.642Z,6.65
2023-01-02T03:34:33.435Z,10.45
2023-01-02T03:37:21.662Z,12.90
2023-01-02T03:40:10.913Z,8.18
2023-01-02T03:43:03.928Z,6.65
2023-01-02T03:45:54.182Z,8.82
2023-01-02T03:48:40.302Z,7.45
2023-01-02T03:51:26.587Z,8.95
2023-01-02T03:54:12.769Z,6.90
2023-01-02T03:57:01.485Z,8.10
2023-01-02T03:59:50.684Z,7.90
2023-01-02T04:02:39.954Z,6.95
2023-01-02T04:05:29.267Z,9.23
2023-01-02T04:08:22.461Z,10.88
2023-01-02T04:11:09.575Z,16.33
2023-01-02T04:13:59.948Z,18.58
2023-01-02T04:16:46.822Z,16.38
2023-01-02T04:19:35.296Z,22.83
2023-01-02T04:22:41.777Z,23.23
2023-01-02T04:25:32.378Z,23.85
2023-01-02T04:28:22.457Z,26.17
2023-01-02T04:31:18.768Z,25.23
2023-01-02T04:34:07.197Z,32.70
2023-01-02T04:36:53.435Z,32.35
2023-01-02T04:39:40.021Z,31.67
2023-01-02T04:42:26.133Z,30.10
2023-01-02T04:45:13.178Z,32.15
2023-01-02T04:47:59.657Z,29.27
2023-01-02T04:50:46.112Z,31.25
2023-01-02T04:53:32.430Z,32.20
2023-01-02T04:56:18.689Z,26.95
2023-01-02T04:59:05.170Z,28.90
2023-01-02T05:01:51.254Z,29.88
2023-01-02T05:04:37.416Z,23.50
2023-01-02T05:07:23.721Z,19.90
2023-01-02T05:10:10.275Z,18.23
2023-01-02T05:12:59.433Z,24.00
2023-01-02T05:15:45.904Z,20.48
2023-01-02T05:18:32.566Z,19.75
2023-01-02T05:21:38.381Z,20.90
2023-01-02T05:24:26.469Z,20.10
2023-01-02T05:27:12.567Z,18.27
2023-01-02T05:29:58.732Z,20.80
2023-01-02T05:32:44.855Z,20.52
2023-01-02T05:35:33.409Z,20.17
2023-01-02T05:38:19.530Z,18.35
2023-01-02T05:41:06.608Z,22.88
2023-01-02T05:43:53.058Z,16.85
2023-01-02T05:46:40.023Z,22.92
2023-01-02T05:49:26.368Z,18.50
2023-01-02T05:52:12.573Z,21.00
2023-01-02T05:54:58.676Z,16.02
2023-01-02T05:57:45.297Z,17.60
2023-01-02T06:00:31.490Z,14.75
2023-01-02T06:03:17.677Z,13.60
2023-01-02T06:06:10.705Z,15.15
2023-01-02T06:08:57.646Z,13.82
2023-01-02T06:11:44.294Z,16.05
2023-01-02T06:14:30.299Z,14.90
2023-01-02T06:17:17.984Z,13.07
2023-01-02T06:20:04.825Z,13.15
2023-01-02T06:22:50.859Z,17.52
2023-01-02T06:25:37.061Z,13.23
2023-01-02T06:28:23.257Z,15.60
2023-01-02T06:31:10.741Z,23.98
2023-01-02T06:33:58.287Z,18.85
2023-01-02T06:36:44.880Z,15.63
2023-01-02T06:39:31.181Z,20.27
2023-01-02T06:42:17.376Z,14.18
2023-01-02T06:45:03.974Z,28.25
2023-01-02T06:47:51.265Z,29.00
2023-01-02T06:50:37.611Z,29.35
2023-01-02T06:53:23.772Z,34.90
2023-01-02T06:56:11.344Z,21.63
2023-01-02T06:58:57.456Z,23.73
2023-01-02T07:01:43.848Z,44.33
2023-01-02T07:04:29.824Z,20.80
2023-01-02T07:07:16.007Z,18.05
2023-01-02T07:10:02.214Z,18.33
2023-01-02T07:12:48.180Z,16.40
2023-01-02T07:15:34.424Z,21.75
2023-01-02T07:18:20.505Z,19.63
2023-01-02T07:21:07.513Z,22.92
2023-01-02T07:23:53.882Z,22.17
2023-01-02T07:26:40.025Z,24.15
2023-01-02T07:29:27.504Z,22.58
2023-01-02T07:32:13.902Z,48.80
2023-01-02T07:34:59.788Z,33.90
2023-01-02T07:37:45.987Z,27.27
2023-01-02T07:40:33.272Z,31.15
2023-01-02T07:43:20.774Z,31.48
2023-01-02T07:46:06.864Z,38.42
2023-01-02T07:48:53.455Z,26.73
2023-01-02T07:51:39.717Z,25.92
2023-01-02T07:54:25.864Z,28.85
2023-01-02T07:57:12.378Z,26.67
2023-01-02T07:59:59.230Z,30.65
2023-01-02T08:02:45.520Z,36.92
2023-01-02T08:05:34.156Z,31.77
2023-01-02T08:08:20.227Z,37.60
2023-01-02T08:11:11.289Z,28.98
2023-01-02T08:13:57.898Z,29.38
2023-01-02T08:16:44.448Z,27.05
2023-01-02T08:19:30.481Z,28.30
2023-01-02T08:22:17.200Z,26.95
2023-01-02T08:25:04.096Z,24.75
2023-01-02T08:27:50.362Z,27.75
2023-01-02T08:30:36.817Z,35.63
2023-01-02T08:33:23.342Z,32.15
2023-01-02T08:36:09.910Z,30.13
2023-01-02T08:38:56.262Z,34.28
2023-01-02T08:41:42.977Z,29.58
2023-01-02T08:44:29.031Z,32.17
2023-01-02T08:47:15.258Z,28.85
2023-01-02T08:50:01.429Z,30.75
2023-01-02T08:52:47.623Z,27.35
2023-01-02T08:55:33.943Z,27.52
2023-01-02T08:58:19.937Z,24.60
2023-01-02T09:01:06.251Z,23.92
2023-01-02T09:03:53.323Z,24.60
2023-01-02T09:06:40.196Z,24.02
2023-01-02T09:09:26.851Z,24.60
2023-01-02T09:12:13.126Z,23.38
2023-01-02T09:14:59.194Z,24.17
2023-01-02T09:17:45.307Z,25.10
2023-01-02T09:20:31.585Z,23.52
2023-01-02T09:23:17.805Z,27.73
2023-01-02T09:26:05.363Z,26.63
2023-01-02T09:28:52.303Z,27.73
2023-01-02T09:31:39.214Z,29.25
2023-01-02T09:34:25.729Z,29.45
2023-01-02T09:37:12.335Z,29.10
2023-01-02T09:39:58.896Z,30.92
2023-01-02T09:42:45.880Z,32.35
2023-01-02T09:45:32.370Z,29.55
2023-01-02T09:48:20.237Z,29.65
2023-01-02T09:51:07.895Z,31.65
2023-01-02T09:53:54.328Z,33.50
2023-01-02T09:56:42.321Z,29.35
2023-01-02T09:59:31.888Z,30.00
2023-01-02T10:02:37.245Z,31.27
2023-01-02T10:05:43.065Z,35.47
2023-01-02T10:08:33.595Z,31.85
2023-01-02T10:11:24.549Z,38.35
2023-01-02T10:14:36.005Z,37.42
2023-01-02T10:17:25.206Z,33.92
2023-01-02T10:20:23.824Z,31.05
2023-01-02T10:23:14.237Z,28.85
2023-01-02T10:26:03.479Z,29.73
2023-01-02T10:28:52.765Z,25.65
2023-01-02T10:31:42.487Z,28.77
2023-01-02T10:34:35.746Z,30.95
2023-01-02T10:37:22.456Z,28.73
2023-01-02T10:40:09.533Z,32.25
2023-01-02T10:43:00.042Z,31.15
2023-01-02T10:45:47.083Z,31.77
2023-01-02T10:48:35.801Z,31.70
2023-01-02T10:51:22.511Z,35.88
2023-01-02T10:54:35.001Z,33.50
2023-01-02T10:57:59.169Z,36.80
2023-01-02T11:00:50.154Z,35.33
2023-01-02T11:03:48.882Z,36.42
2023-01-02T11:06:43.644Z,32.38
2023-01-02T11:12:33.710Z,34.58
2023-01-02T11:15:39.011Z,37.85
2023-01-02T11:18:45.445Z,27.38
2023-01-02T11:21:34.118Z,28.55
2023-01-02T11:24:59.532Z,32.92
2023-01-02T11:27:54.781Z,28.92
2023-01-02T11:30:45.860Z,30.50
2023-01-02T11:33:36.216Z,31.70
2023-01-02T11:36:23.359Z,28.55
2023-01-02T11:39:21.205Z,28.92
2023-01-02T11:42:34.349Z,32.28
2023-01-02T11:45:21.038Z,30.95
2023-01-02T11:48:15.557Z,30.40
2023-01-02T11:51:06.889Z,29.75
2023-01-02T11:53:54.634Z,28.55
2023-01-02T11:56:42.860Z,31.50
2023-01-02T11:59:32.316Z,30.60
2023-01-02T12:02:21.547Z,28.92
2023-01-02T12:05:15.535Z,30.00
2023-01-02T12:08:05.758Z,31.25
2023-01-02T12:10:54.253Z,33.30
2023-01-02T12:13:46.834Z,33.22
2023-01-02T12:19:45.088Z,34.13
2023-01-02T12:22:53.991Z,25.55
2023-01-02T12:26:01.953Z,36.78
2023-01-02T12:28:57.637Z,35.30
2023-01-02T12:32:05.989Z,36.20
2023-01-02T12:35:09.246Z,33.97
2023-01-02T12:37:57.003Z,39.80
2023-01-02T12:40:46.655Z,39.10
2023-01-02T12:44:05.136Z,34.83
2023-01-02T12:46:58.340Z,44.47
2023-01-02T12:49:54.398Z,41.45
2023-01-02T12:52:59.463Z,56.88
2023-01-02T12:56:04.843Z,47.20
2023-01-02T12:59:09.952Z,44.40
2023-01-02T13:02:00.216Z,51.08
2023-01-02T13:04:49.262Z,51.63
2023-01-02T13:07:42.362Z,46.92
2023-01-02T13:10:29.796Z,46.33
2023-01-02T13:13:17.027Z,47.33
2023-01-02T13:16:16.135Z,45.53
2023-01-02T13:19:18.521Z,39.70
2023-01-02T13:22:12.201Z,43.50
2023-01-02T13:24:59.026Z,43.00
2023-01-02T13:27:46.446Z,45.55
2023-01-02T13:30:35.916Z,40.60
2023-01-02T13:33:34.838Z,39.55
2023-01-02T13:36:28.447Z,42.78
2023-01-02T13:39:23.668Z,35.60
2023-01-02T13:42:30.777Z,40.35
2023-01-02T13:45:21.703Z,39.55
2023-01-02T13:48:19.140Z,41.83
2023-01-02T13:51:07.050Z,37.25
2023-01-02T13:53:54.426Z,37.15
2023-01-02T13:56:59.719Z,38.40
2023-01-02T13:59:58.753Z,37.03
2023-01-02T14:03:05.173Z,35.42
2023-01-02T14:05:57.869Z,33.28
2023-01-02T14:09:03.042Z,25.90
2023-01-02T14:11:57.055Z,31.85
2023-01-02T14:14:44.212Z,27.13
2023-01-02T14:17:50.558Z,34.20
2023-01-02T14:20:38.746Z,27.23
2023-01-02T14:23:30.508Z,26.10
2023-01-02T14:26:25.560Z,28.23
2023-01-02T14:29:13.590Z,29.33
2023-01-02T14:32:02.366Z,27.08
2023-01-02T14:34:53.832Z,34.67
2023-01-02T14:37:40.111Z,35.28
2023-01-02T14:40:26.889Z,32.50
2023-01-02T14:43:32.105Z,32.22
2023-01-02T14:46:18.356Z,34.60
2023-01-02T14:49:26.150Z,37.50
2023-01-02T14:52:15.998Z,38.70
2023-01-02T14:55:05.506Z,32.45
2023-01-02T14:57:52.539Z,38.40
2023-01-02T15:00:40.005Z,40.15
2023-01-02T15:03:35.767Z,35.20
2023-01-02T15:06:42.683Z,34.42
2023-01-02T15:09:34.631Z,35.08
2023-01-02T15:12:42.651Z,38.30
2023-01-02T15:15:30.121Z,33.88
2023-01-02T15:18:17.136Z,28.90
2023-01-02T15:21:09.038Z,28.40
2023-01-02T15:23:57.121Z,27.95
2023-01-02T15:26:44.883Z,29.25
2023-01-02T15:29:30.960Z,28.73
2023-01-02T15:32:19.749Z,26.60
2023-01-02T15:35:13.874Z,28.65
2023-01-02T15:37:59.900Z,26.33
2023-01-02T15:40:46.077Z,22.70
2023-01-02T15:43:52.858Z,25.17
2023-01-02T15:46:39.378Z,27.55
2023-01-02T15:49:25.737Z,26.67
2023-01-02T15:52:23.151Z,26.73
2023-01-02T15:55:13.406Z,27.90
2023-01-02T15:58:00.082Z,28.63
2023-01-02T16:00:47.018Z,26.75
2023-01-02T16:04:02.307Z,26.13
2023-01-02T16:06:43.163Z,28.45
2023-01-02T16:09:31.291Z,21.38
2023-01-02T16:12:21.479Z,23.08
2023-01-02T16:15:08.675Z,19.83
2023-01-02T16:17:55.852Z,19.58
2023-01-02T16:20:42.295Z,19.08
2023-01-02T16:23:28.352Z,21.80
2023-01-02T16:26:15.028Z,17.75
2023-01-02T16:29:01.113Z,17.92
2023-01-02T16:31:53.619Z,20.02
2023-01-02T16:34:39.629Z,18.98
2023-01-02T16:37:31.331Z,16.70
2023-01-02T16:41:01.378Z,16.27
2023-01-02T16:43:39.594Z,15.73
2023-01-02T16:46:29.928Z,15.60
2023-01-02T16:49:17.912Z,16.15
2023-01-02T16:52:04.801Z,14.60
2023-01-02T16:54:54.314Z,19.00
2023-01-02T16:57:40.770Z,15.63
2023-01-02T17:00:26.925Z,16.58
2023-01-02T17:03:17.763Z,15.90
2023-01-02T17:06:05.565Z,15.73
2023-01-02T17:08:52.580Z,15.65
2023-01-02T17:11:59.504Z,16.30
2023-01-02T17:14:46.049Z,16.58
2023-01-02T17:17:32.829Z,17.85
2023-01-02T17:20:19.892Z,16.08
2023-01-02T17:23:06.872Z,17.50
2023-01-02T17:25:53.495Z,18.70
2023-01-02T17:28:39.710Z,17.13
2023-01-02T17:31:26.723Z,20.13
2023-01-02T17:34:13.618Z,21.65
2023-01-02T17:36:59.956Z,21.27
2023-01-02T17:39:47.865Z,21.58
2023-01-02T17:42:34.348Z,23.42
2023-01-02T17:45:20.538Z,20.63
2023-01-02T17:48:31.034Z,21.85
2023-01-02T17:51:13.629Z,17.23
2023-01-02T17:54:00.459Z,16.38
2023-01-02T17:56:46.949Z,23.42
2023-01-02T17:59:33.299Z,17.50
2023-01-02T18:02:20.893Z,19.33
2023-01-02T18:05:08.110Z,18.65
2023-01-02T18:07:54.304Z,17.88
2023-01-02T18:10:41.007Z,18.63
2023-01-02T18:13:29.022Z,19.88
2023-01-02T18:16:23.520Z,18.38
2023-01-02T18:19:21.988Z,19.17
2023-01-02T18:22:24.409Z,19.23
2023-01-02T18:25:19.696Z,18.25
2023-01-02T18:28:23.397Z,16.95
2023-01-02T18:31:15.652Z,16.88
2023-01-02T18:34:03.674Z,15.40
2023-01-02T18:36:50.570Z,17.50
2023-01-02T18:39:43.043Z,19.13
2023-01-02T18:42:32.326Z,19.67
2023-01-02T18:45:19.206Z,19.90
2023-01-02T18:48:13.104Z,25.33
2023-01-02T18:51:00.927Z,20.08
2023-01-02T18:53:49.187Z,24.02
2023-01-02T18:56:36.174Z,25.20
2023-01-02T18:59:25.842Z,21.92
2023-01-02T19:02:18.254Z,22.55
2023-01-02T19:05:18.749Z,22.02
2023-01-02T19:08:14.806Z,21.98
2023-01-02T19:11:20.889Z,21.95
2023-01-02T19:14:27.174Z,21.70
2023-01-02T19:17:22.901Z,20.85
2023-01-02T19:20:11.041Z,21.73
2023-01-02T19:23:03.563Z,20.17
2023-01-02T19:25:50.889Z,22.10
2023-01-02T19:28:37.997Z,17.15
2023-01-02T19:31:25.669Z,17.05
2023-01-02T19:34:25.465Z,18.05
2023-01-02T19:37:12.795Z,18.17
2023-01-02T19:40:20.503Z,18.02
2023-01-02T19:43:06.713Z,17.25
2023-01-02T19:45:54.163Z,18.67
2023-01-02T19:48:41.240Z,19.23
2023-01-02T19:51:32.733Z,17.95
2023-01-02T19:54:19.732Z,16.17
2023-01-02T19:57:06.536Z,15.93
2023-01-02T19:59:53.601Z,15.73
2023-01-02T20:02:41.892Z,19.98
2023-01-02T20:05:29.310Z,18.23
2023-01-02T20:08:15.712Z,20.23
2023-01-02T20:11:02.927Z,18.63
2023-01-02T20:13:49.833Z,18.38
2023-01-02T20:16:36.309Z,17.83
2023-01-02T20:19:23.570Z,21.23
2023-01-02T20:22:10.166Z,21.00
2023-01-02T20:24:57.171Z,22.77
2023-01-02T20:27:43.487Z,22.10
2023-01-02T20:30:29.629Z,22.83
2023-01-02T20:33:16.044Z,24.45
2023-01-02T20:36:02.187Z,22.30
2023-01-02T20:38:48.765Z,25.48
2023-01-02T20:41:35.107Z,26.60
2023-01-02T20:44:21.614Z,26.33
2023-01-02T20:47:07.718Z,30.02
2023-01-02T20:49:54.536Z,30.85
2023-01-02T20:52:40.885Z,30.40
2023-01-02T20:55:27.845Z,37.28
2023-01-02T20:58:15.103Z,31.95
2023-01-02T21:01:01.786Z,37.90
2023-01-02T21:03:50.031Z,38.63
2023-01-02T21:06:39.428Z,42.05
2023-01-02T21:09:29.807Z,38.53
2023-01-02T21:12:34.660Z,44.10
2023-01-02T21:15:39.995Z,41.30
2023-01-02T21:18:27.518Z,41.17
2023-01-02T21:21:20.244Z,46.10
2023-01-02T21:24:06.608Z,51.55
2023-01-02T21:26:53.030Z,48.97
2023-01-02T21:29:39.771Z,48.35
2023-01-02T21:32:26.009Z,52.78
2023-01-02T21:35:12.184Z,54.00
2023-01-02T21:37:58.328Z,45.58
2023-01-02T21:40:45.430Z,44.70
2023-01-02T21:43:31.789Z,43.90
2023-01-02T21:46:18.120Z,39.83
2023-01-02T21:49:04.137Z,43.40
2023-01-02T21:51:50.279Z,42.17
2023-01-02T21:54:36.512Z,41.88
2023-01-02T21:57:38.685Z,38.03
2023-01-02T22:00:30.752Z,42.65
2023-01-02T22:03:17.468Z,36.50
2023-01-02T22:06:03.936Z,32.60
2023-01-02T22:08:50.345Z,31.10
2023-01-02T22:11:55.228Z,33.85
2023-01-02T22:14:41.642Z,29.10
2023-01-02T22:17:28.086Z,28.00
2023-01-02T22:20:14.559Z,28.23
2023-01-02T22:23:00.802Z,27.05
2023-01-02T22:25:46.833Z,26.17
2023-01-02T22:28:33.130Z,25.38
2023-01-02T22:31:19.575Z,23.90
2023-01-02T22:34:06.052Z,20.70
2023-01-02T22:36:52.365Z,22.58
2023-01-02T22:39:42.167Z,20.17
2023-01-02T22:43:05.281Z,20.98
2023-01-02T22:45:53.314Z,21.17
2023-01-02T22:48:42.459Z,18.05
2023-01-02T22:52:05.471Z,19.90
2023-01-02T22:54:40.997Z,17.50
2023-01-02T22:57:27.475Z,19.33
2023-01-02T23:00:22.492Z,17.98
2023-01-02T23:03:15.759Z,14.68
2023-01-02T23:06:01.973Z,16.20
2023-01-02T23:08:51.045Z,17.27
2023-01-02T23:11:37.270Z,13.43
2023-01-02T23:14:23.684Z,15.48
2023-01-02T23:17:31.764Z,11.95
2023-01-02T23:20:18.465Z,13.63
2023-01-02T23:23:06.551Z,13.35
2023-01-02T23:25:52.760Z,12.98
2023-01-02T23:29:05.748Z,14.25
2023-01-02T23:31:46.055Z,14.27
2023-01-02T23:34:32.756Z,12.88
2023-01-02T23:37:19.484Z,16.15
2023-01-02T23:40:06.328Z,14.15
2023-01-02T23:42:52.545Z,15.27
2023-01-02T23:45:38.701Z,15.23
2023-01-02T23:48:24.841Z,13.07
2023-01-02T23:51:10.977Z,14.00
2023-01-02T23:53:58.108Z,12.30
2023-01-02T23:56:45.838Z,12.52
2023-01-02T23:59:32.208Z,9.85
